Time;durP1;ratioP1;P1;durP2;ratioP2;P2;SDS_P1;SDS_P2;PMS_P1;PMS_P2;Temp;Humidity;BMP_temperature;BMP_pressure;BME280_temperature;BME280_humidity;BME280_pressure;Samples;Min_cycle;Max_cycle;Signal;HPM_P1;HPM_P2
2022/08/28 00:00:41;;;;;;;8.33;3.67;;;21.90;56.40;;;;;;5035373;28;20196;-95
2022/08/28 00:03:15;;;;;;;4.47;2.23;;;21.80;56.40;;;;;;5035087;28;20240;-96
2022/08/28 00:06:44;;;;;;;8.23;3.33;;;21.80;56.30;;;;;;5035534;28;20210;-95
2022/08/28 00:09:11;;;;;;;7.27;3.47;;;21.80;56.60;;;;;;5007281;28;20302;-95
2022/08/28 00:11:39;;;;;;;13.00;4.30;;;21.80;56.30;;;;;;5043345;28;20209;-94
2022/08/28 00:14:10;;;;;;;8.97;3.90;;;21.70;56.30;;;;;;5038802;28;20189;-96
2022/08/28 00:16:37;;;;;;;10.40;4.10;;;21.70;56.50;;;;;;5033156;28;20207;-94
2022/08/28 00:19:08;;;;;;;13.93;4.73;;;21.70;56.40;;;;;;5033045;28;20264;-96
2022/08/28 00:21:36;;;;;;;18.90;5.13;;;21.60;56.60;;;;;;5034577;28;20209;-96
2022/08/28 00:24:23;;;;;;;13.00;4.37;;;21.60;56.60;;;;;;5034129;28;20211;-95
2022/08/28 00:29:37;;;;;;;8.03;3.43;;;21.60;56.80;;;;;;5034847;28;20203;-95
2022/08/28 00:32:07;;;;;;;8.67;3.87;;;21.50;56.80;;;;;;5034193;28;20193;-95
2022/08/28 00:34:53;;;;;;;8.80;3.67;;;21.50;56.80;;;;;;5034735;28;20652;-96
2022/08/28 00:37:38;;;;;;;10.43;3.63;;;21.40;57.20;;;;;;5034963;28;20224;-96
2022/08/28 00:40:20;;;;;;;17.33;5.20;;;21.40;57.20;;;;;;5034336;28;20201;-96
2022/08/28 00:42:59;;;;;;;13.17;4.27;;;21.40;57.20;;;;;;5034451;28;20744;-94
2022/08/28 00:46:01;;;;;;;9.90;3.90;;;21.40;57.10;;;;;;5034394;28;20244;-95
2022/08/28 00:48:30;;;;;;;10.00;3.87;;;21.30;57.40;;;;;;5033123;28;20212;-95
2022/08/28 00:53:47;;;;;;;13.23;4.47;;;21.30;57.30;;;;;;5033911;28;20238;-95
2022/08/28 00:56:20;;;;;;;9.10;3.40;;;21.20;57.10;;;;;;5034359;28;20283;-96
2022/08/28 00:59:03;;;;;;;9.70;3.90;;;21.20;57.60;;;;;;5033009;28;20201;-95
2022/08/28 01:01:46;;;;;;;8.43;3.67;;;21.20;57.40;;;;;;5033014;28;20212;-96
2022/08/28 01:04:16;;;;;;;15.40;5.07;;;21.20;57.70;;;;;;5055368;22;20246;-96
2022/08/28 01:06:44;;;;;;;11.80;4.00;;;21.20;57.50;;;;;;5054638;28;20207;-96
2022/08/28 01:09:23;;;;;;;9.03;3.63;;;21.10;57.40;;;;;;5054804;28;20200;-95
2022/08/28 01:11:53;;;;;;;7.57;3.67;;;21.10;57.80;;;;;;5054557;28;20215;-96
2022/08/28 01:14:23;;;;;;;10.57;4.03;;;21.10;57.60;;;;;;5057157;28;20265;-96
2022/08/28 01:16:54;;;;;;;10.67;4.03;;;21.10;57.60;;;;;;5065256;28;20281;-95
2022/08/28 01:19:43;;;;;;;12.17;4.10;;;21.10;57.70;;;;;;5057764;28;20310;-96
2022/08/28 01:22:21;;;;;;;10.53;4.03;;;21.00;58.10;;;;;;5055198;28;20229;-96
2022/08/28 01:24:52;;;;;;;10.37;4.10;;;21.00;57.70;;;;;;5053626;28;20578;-96
2022/08/28 01:27:22;;;;;;;8.23;3.70;;;21.00;57.60;;;;;;5053158;28;20625;-95
2022/08/28 01:32:42;;;;;;;8.67;3.43;;;21.00;58.10;;;;;;5053100;28;20196;-95
2022/08/28 01:35:20;;;;;;;8.90;3.93;;;20.90;57.80;;;;;;5054095;28;20251;-95
2022/08/28 01:37:54;;;;;;;8.07;3.50;;;20.90;57.80;;;;;;5054466;28;20227;-96
2022/08/28 01:40:59;;;;;;;9.67;4.47;;;20.90;58.10;;;;;;5053800;28;20218;-94
2022/08/28 01:43:47;;;;;;;13.83;5.63;;;20.90;58.50;;;;;;5053644;28;20238;-95
2022/08/28 01:48:58;;;;;;;13.97;4.47;;;20.80;58.00;;;;;;5050292;28;20208;-95
2022/08/28 01:51:26;;;;;;;8.33;3.90;;;20.80;58.10;;;;;;5053536;28;20253;-96
2022/08/28 01:53:54;;;;;;;13.60;4.83;;;20.80;58.10;;;;;;5052675;28;20242;-96
2022/08/28 01:56:22;;;;;;;10.63;4.47;;;20.80;58.30;;;;;;5059402;28;20235;-95
2022/08/28 01:59:01;;;;;;;10.77;4.30;;;20.80;58.40;;;;;;5069143;28;20342;-96
2022/08/28 02:01:29;;;;;;;10.80;4.53;;;20.80;58.70;;;;;;5057281;28;20200;-96
2022/08/28 02:04:00;;;;;;;12.20;4.80;;;20.70;58.40;;;;;;5059089;28;20238;-96
2022/08/28 02:09:18;;;;;;;12.17;5.17;;;20.70;58.80;;;;;;5046462;28;20224;-96
2022/08/28 02:11:46;;;;;;;9.20;3.77;;;20.70;58.50;;;;;;5042207;28;20716;-96
2022/08/28 02:14:15;;;;;;;7.77;3.83;;;20.70;58.70;;;;;;5040717;28;20204;-96
2022/08/28 02:16:43;;;;;;;16.17;4.73;;;20.60;58.70;;;;;;5053386;28;20259;-95
2022/08/28 02:19:16;;;;;;;8.77;4.00;;;20.60;58.60;;;;;;5048936;28;20975;-96
2022/08/28 02:21:49;;;;;;;6.43;3.30;;;20.60;59.00;;;;;;5039525;28;20209;-96
2022/08/28 02:24:19;;;;;;;8.30;3.53;;;20.60;59.00;;;;;;5038450;28;20347;-96
2022/08/28 02:26:47;;;;;;;7.70;4.13;;;20.60;59.00;;;;;;5038328;28;20201;-96
2022/08/28 02:29:28;;;;;;;7.90;3.77;;;20.50;58.90;;;;;;5038249;28;20201;-96
2022/08/28 02:31:59;;;;;;;6.33;3.53;;;20.50;59.30;;;;;;5038467;28;20227;-96
2022/08/28 02:34:29;;;;;;;13.07;5.03;;;20.50;59.10;;;;;;5037363;28;20297;-96
2022/08/28 02:36:56;;;;;;;15.07;5.37;;;20.50;58.90;;;;;;5037256;28;20240;-96
2022/08/28 02:39:23;;;;;;;12.20;4.67;;;20.50;58.90;;;;;;5035989;28;20691;-96
2022/08/28 02:42:27;;;;;;;15.90;5.20;;;20.40;59.00;;;;;;5035037;28;20208;-96
2022/08/28 02:45:24;;;;;;;9.03;3.63;;;20.40;59.10;;;;;;4994318;28;20208;-96
2022/08/28 02:47:53;;;;;;;11.03;4.30;;;20.40;59.30;;;;;;5036051;28;20240;-96
2022/08/28 02:50:26;;;;;;;8.47;3.67;;;20.40;59.10;;;;;;5038071;28;20223;-96
2022/08/28 02:52:55;;;;;;;9.73;4.43;;;20.30;59.40;;;;;;5038325;28;20267;-96
2022/08/28 02:55:30;;;;;;;13.30;5.03;;;20.30;59.30;;;;;;5038003;28;20259;-96
2022/08/28 02:57:57;;;;;;;10.80;4.07;;;20.30;59.50;;;;;;5036723;28;20288;-96
2022/08/28 03:00:42;;;;;;;9.73;3.90;;;20.30;59.30;;;;;;5036497;28;20224;-96
2022/08/28 03:03:11;;;;;;;8.80;4.10;;;20.20;59.70;;;;;;5036210;28;20598;-96
2022/08/28 03:05:41;;;;;;;8.03;3.90;;;20.20;59.40;;;;;;5036674;28;20668;-96
2022/08/28 03:08:11;;;;;;;10.10;4.60;;;20.20;59.60;;;;;;5037795;28;20220;-96
2022/08/28 03:10:38;;;;;;;12.13;4.80;;;20.20;59.70;;;;;;5045090;28;20208;-96
2022/08/28 03:13:06;;;;;;;14.13;4.43;;;20.10;59.60;;;;;;5054894;28;20397;-96
2022/08/28 03:15:34;;;;;;;10.60;4.77;;;20.10;59.70;;;;;;5042519;28;20296;-96
2022/08/28 03:18:03;;;;;;;8.97;3.73;;;20.10;59.80;;;;;;5037651;28;20278;-96
2022/08/28 03:20:30;;;;;;;9.60;4.10;;;20.10;59.90;;;;;;5038078;28;20198;-96
2022/08/28 03:25:43;;;;;;;11.23;4.50;;;20.10;60.00;;;;;;5054656;28;20192;-96
2022/08/28 03:31:18;;;;;;;9.17;4.37;;;20.00;60.40;;;;;;5077693;22;20232;-96
2022/08/28 03:36:22;;;;;;;14.80;4.73;;;19.90;59.90;;;;;;5058533;28;20228;-96
2022/08/28 03:38:56;;;;;;;7.50;3.97;;;19.90;60.50;;;;;;5058368;28;20250;-96
2022/08/28 03:47:19;;;;;;;10.07;4.43;;;19.80;60.30;;;;;;5051918;28;20204;-96
2022/08/28 03:49:54;;;;;;;7.97;4.17;;;19.80;60.20;;;;;;5065266;22;20235;-96
2022/08/28 03:52:23;;;;;;;12.27;4.77;;;19.80;60.50;;;;;;5056976;28;20202;-96
2022/08/28 03:54:53;;;;;;;7.10;3.40;;;19.80;60.60;;;;;;5060363;28;20231;-96
2022/08/28 04:00:13;;;;;;;9.63;3.90;;;19.70;60.70;;;;;;5041447;28;20211;-96
2022/08/28 04:02:46;;;;;;;13.97;4.27;;;19.70;60.90;;;;;;5066517;28;20302;-96
2022/08/28 04:05:29;;;;;;;8.67;4.17;;;19.60;61.00;;;;;;5071207;28;20210;-96
2022/08/28 04:08:14;;;;;;;8.27;4.13;;;19.60;61.50;;;;;;5065915;28;20202;-96
2022/08/28 04:10:45;;;;;;;4.83;2.93;;;19.60;61.30;;;;;;5057893;28;20258;-96
2022/08/28 04:13:38;;;;;;;7.77;4.13;;;19.50;61.10;;;;;;5058088;28;20204;-96
2022/08/28 04:16:15;;;;;;;7.83;3.57;;;19.50;61.20;;;;;;5058071;28;20922;-96
2022/08/28 04:21:20;;;;;;;65.00;21.93;;;19.50;61.70;;;;;;5067213;22;20242;-96
2022/08/28 04:23:50;;;;;;;5.70;3.47;;;19.50;61.40;;;;;;5036833;28;20576;-96
2022/08/28 04:26:20;;;;;;;25.07;8.90;;;19.40;61.60;;;;;;5045088;22;20272;-96
2022/08/28 04:28:48;;;;;;;10.93;3.87;;;19.40;61.60;;;;;;5056855;28;20203;-96
2022/08/28 04:31:16;;;;;;;12.33;4.37;;;19.40;61.70;;;;;;5056682;28;20207;-96
2022/08/28 04:33:46;;;;;;;11.67;4.57;;;19.40;62.50;;;;;;5057157;28;20196;-96
2022/08/28 04:36:17;;;;;;;6.73;3.87;;;19.40;62.10;;;;;;5057289;28;20274;-96
2022/08/28 04:38:44;;;;;;;10.47;4.67;;;19.30;61.90;;;;;;5137913;22;20281;-96
2022/08/28 04:41:16;;;;;;;14.83;5.37;;;19.30;61.90;;;;;;5199700;22;20261;-96
2022/08/28 04:46:29;;;;;;;8.80;3.90;;;19.30;62.10;;;;;;5066157;22;20257;-96
2022/08/28 04:48:56;;;;;;;14.70;5.43;;;19.30;62.20;;;;;;5064460;22;20279;-96
2022/08/28 04:51:27;;;;;;;10.77;4.03;;;19.30;62.20;;;;;;5054520;28;20221;-96
2022/08/28 04:53:56;;;;;;;8.97;4.10;;;19.30;62.50;;;;;;5055494;28;20203;-96
2022/08/28 04:56:31;;;;;;;9.63;4.23;;;19.20;62.40;;;;;;5055391;28;20403;-96
2022/08/28 04:59:02;;;;;;;13.73;5.37;;;19.20;62.80;;;;;;5060948;28;20191;-94
2022/08/28 05:01:32;;;;;;;16.23;5.43;;;19.20;62.50;;;;;;5069042;28;20275;-95
2022/08/28 05:04:03;;;;;;;7.87;3.70;;;19.20;62.40;;;;;;5057463;28;20220;-95
2022/08/28 05:06:33;;;;;;;7.40;3.57;;;19.20;62.80;;;;;;5056187;28;20211;-96
2022/08/28 05:09:04;;;;;;;8.40;3.53;;;19.10;62.50;;;;;;5055122;28;20246;-96
2022/08/28 05:11:33;;;;;;;8.20;3.60;;;19.20;62.90;;;;;;5055426;28;20203;-95
2022/08/28 05:14:01;;;;;;;8.53;3.77;;;19.10;62.70;;;;;;5054721;28;20636;-95
2022/08/28 05:16:29;;;;;;;9.53;4.17;;;19.10;62.70;;;;;;5054422;28;20254;-95
2022/08/28 05:19:00;;;;;;;10.27;3.73;;;19.10;62.80;;;;;;5054185;28;20203;-96
2022/08/28 05:21:33;;;;;;;12.67;4.37;;;19.20;63.20;;;;;;5054713;28;20211;-95
2022/08/28 05:24:00;;;;;;;11.97;3.83;;;19.10;63.10;;;;;;5059284;28;20207;-95
2022/08/28 05:26:29;;;;;;;6.93;3.27;;;19.20;63.00;;;;;;5054953;28;20616;-95
2022/08/28 05:29:07;;;;;;;12.37;3.93;;;19.10;63.00;;;;;;5054137;28;20196;-95
2022/08/28 05:31:35;;;;;;;13.07;4.67;;;19.10;63.40;;;;;;5052983;28;20275;-96
2022/08/28 05:34:06;;;;;;;11.83;4.10;;;19.20;63.20;;;;;;5056423;28;20207;-95
2022/08/28 05:36:36;;;;;;;12.90;3.77;;;19.20;63.50;;;;;;5058945;28;20243;-96
2022/08/28 05:39:13;;;;;;;9.30;4.10;;;19.20;63.50;;;;;;5059627;28;20199;-95
2022/08/28 05:41:47;;;;;;;9.80;3.43;;;19.20;63.70;;;;;;5059528;28;20194;-95
2022/08/28 05:44:20;;;;;;;8.93;2.93;;;19.20;63.70;;;;;;5059290;28;20193;-95
2022/08/28 05:46:52;;;;;;;14.90;4.37;;;19.20;63.70;;;;;;5058839;28;20652;-95
2022/08/28 05:49:22;;;;;;;10.53;3.60;;;19.20;63.60;;;;;;5058823;28;20211;-96
2022/08/28 05:51:51;;;;;;;8.57;3.27;;;19.20;63.60;;;;;;5059605;28;20257;-95
2022/08/28 05:54:19;;;;;;;13.07;4.03;;;19.20;63.70;;;;;;5068932;28;20207;-95
2022/08/28 05:56:48;;;;;;;9.40;3.63;;;19.20;63.90;;;;;;5061081;28;20232;-96
2022/08/28 05:59:20;;;;;;;9.57;3.17;;;19.20;63.80;;;;;;5059684;28;20198;-95
2022/08/28 06:01:53;;;;;;;7.53;3.20;;;19.30;64.20;;;;;;5058998;28;20295;-96
2022/08/28 06:04:25;;;;;;;10.53;3.70;;;19.30;64.30;;;;;;5058432;28;20269;-91
2022/08/28 06:06:54;;;;;;;9.80;3.40;;;19.30;64.20;;;;;;5059408;28;20188;-96
2022/08/28 06:09:25;;;;;;;11.87;4.40;;;19.30;64.20;;;;;;5074574;28;20191;-96
2022/08/28 06:11:55;;;;;;;13.03;3.87;;;19.40;64.30;;;;;;5060152;28;20257;-96
2022/08/28 06:14:26;;;;;;;10.60;3.70;;;19.40;64.40;;;;;;5059188;28;20246;-95
2022/08/28 06:16:57;;;;;;;7.77;2.97;;;19.40;64.60;;;;;;5058414;28;20285;-95
2022/08/28 06:19:31;;;;;;;10.00;3.87;;;19.40;64.40;;;;;;5059038;28;20274;-96
2022/08/28 06:22:01;;;;;;;5.97;2.70;;;19.50;64.60;;;;;;5058269;28;20214;-93
2022/08/28 06:24:30;;;;;;;11.23;3.83;;;19.50;64.50;;;;;;5059523;28;20186;-95
2022/08/28 06:27:04;;;;;;;11.37;3.17;;;19.60;64.60;;;;;;5060487;28;20192;-96
2022/08/28 06:29:38;;;;;;;14.63;4.90;;;19.60;64.70;;;;;;5060044;28;20254;-94
2022/08/28 06:38:11;;;;;;;9.30;3.20;;;19.70;65.40;;;;;;5058237;28;20318;-96
2022/08/28 06:40:40;;;;;;;7.17;2.83;;;19.80;64.80;;;;;;5058314;28;20199;-96
2022/08/28 06:43:14;;;;;;;9.10;3.23;;;19.80;64.80;;;;;;5057293;28;20571;-96
2022/08/28 06:48:30;;;;;;;10.63;3.93;;;19.90;65.50;;;;;;5063365;22;20240;-93
2022/08/28 06:51:00;;;;;;;11.77;3.77;;;19.90;64.70;;;;;;5055034;28;20224;-95
2022/08/28 06:53:32;;;;;;;7.73;3.07;;;19.90;64.90;;;;;;5060799;28;20204;-93
2022/08/28 06:56:18;;;;;;;10.47;3.50;;;20.10;65.10;;;;;;5059882;28;20208;-96
2022/08/28 06:58:49;;;;;;;6.97;2.80;;;20.10;65.20;;;;;;5061650;28;20299;-93
2022/08/28 07:01:21;;;;;;;12.10;5.03;;;20.20;65.10;;;;;;5060523;28;20276;-94
2022/08/28 07:03:52;;;;;;;6.77;3.13;;;20.10;64.90;;;;;;5059248;28;20200;-94
2022/08/28 07:09:05;;;;;;;13.40;4.37;;;20.30;65.00;;;;;;5059766;28;20614;-93
2022/08/28 07:11:34;;;;;;;8.83;3.57;;;20.30;64.80;;;;;;5059135;28;20265;-92
2022/08/28 07:14:11;;;;;;;12.13;3.93;;;20.40;64.80;;;;;;5063137;28;20207;-93
2022/08/28 07:16:43;;;;;;;9.23;2.70;;;20.50;64.90;;;;;;5062776;28;20223;-96
2022/08/28 07:19:19;;;;;;;10.00;3.60;;;20.50;64.70;;;;;;5059445;28;20946;-93
2022/08/28 07:21:47;;;;;;;11.73;3.10;;;20.60;64.90;;;;;;5063705;28;20191;-96
2022/08/28 07:24:17;;;;;;;11.50;3.77;;;20.60;64.60;;;;;;5062267;28;20211;-92
2022/08/28 07:26:47;;;;;;;9.73;3.47;;;20.70;64.50;;;;;;5059018;28;20242;-93
2022/08/28 07:29:27;;;;;;;10.20;3.07;;;20.70;64.20;;;;;;5061723;28;20226;-92
2022/08/28 07:31:57;;;;;;;10.03;3.40;;;20.80;64.00;;;;;;5064235;28;20220;-94
2022/08/28 07:34:27;;;;;;;9.30;3.63;;;20.90;63.80;;;;;;5063054;28;20749;-92
2022/08/28 07:36:56;;;;;;;10.20;3.73;;;20.90;63.70;;;;;;5069884;28;20228;-93
2022/08/28 07:39:25;;;;;;;12.27;4.57;;;20.90;63.40;;;;;;5069425;28;20203;-91
2022/08/28 07:41:53;;;;;;;9.80;3.53;;;21.00;63.40;;;;;;5069223;28;20196;-95
2022/08/28 07:47:10;;;;;;;8.20;2.97;;;21.20;63.50;;;;;;5058308;28;20225;-94
2022/08/28 07:49:43;;;;;;;12.37;3.43;;;21.20;63.00;;;;;;5058872;28;20201;-94
2022/08/28 07:52:11;;;;;;;8.57;2.90;;;21.30;62.80;;;;;;5059850;28;20206;-95
2022/08/28 07:54:40;;;;;;;9.27;3.57;;;21.40;62.80;;;;;;5058810;28;20235;-91
2022/08/28 07:57:10;;;;;;;9.67;3.50;;;21.40;62.50;;;;;;5057446;28;20231;-92
2022/08/28 07:59:38;;;;;;;12.30;3.43;;;21.50;62.50;;;;;;5058295;28;20231;-91
2022/08/28 08:02:07;;;;;;;14.53;3.40;;;21.60;62.50;;;;;;5057886;28;20203;-92
2022/08/28 08:04:40;;;;;;;15.23;4.43;;;21.60;61.70;;;;;;5066198;28;20195;-93
2022/08/28 08:07:08;;;;;;;7.93;3.03;;;21.70;61.80;;;;;;5071618;28;20186;-91
2022/08/28 08:12:46;;;;;;;10.73;3.00;;;21.80;61.20;;;;;;5057968;28;20265;-90
2022/08/28 08:15:14;;;;;;;11.70;3.37;;;21.90;61.30;;;;;;5057919;28;20346;-92
2022/08/28 08:17:41;;;;;;;9.27;3.03;;;22.00;61.10;;;;;;5056405;28;20295;-95
2022/08/28 08:20:12;;;;;;;8.50;3.17;;;22.10;61.00;;;;;;5056279;28;20224;-94
2022/08/28 08:22:39;;;;;;;9.43;3.80;;;22.10;60.50;;;;;;5052251;28;20211;-93
2022/08/28 08:25:15;;;;;;;14.33;4.20;;;22.20;60.60;;;;;;5050624;28;20228;-93
2022/08/28 08:27:42;;;;;;;11.20;3.63;;;22.30;60.40;;;;;;5050744;28;20680;-91
2022/08/28 08:30:11;;;;;;;11.13;3.83;;;22.40;60.20;;;;;;5062159;28;20199;-93
2022/08/28 08:32:39;;;;;;;9.00;3.40;;;22.40;59.90;;;;;;5061098;28;20199;-93
2022/08/28 08:35:07;;;;;;;8.00;3.20;;;22.50;60.00;;;;;;5060220;28;20224;-92
2022/08/28 08:37:35;;;;;;;9.40;3.67;;;22.60;60.10;;;;;;5061066;22;20237;-90
2022/08/28 08:40:03;;;;;;;10.47;3.10;;;22.70;59.80;;;;;;5053083;28;20203;-92
2022/08/28 08:45:20;;;;;;;10.17;4.00;;;22.90;59.90;;;;;;5048870;28;20265;-92
2022/08/28 08:47:55;;;;;;;8.57;2.73;;;23.00;59.70;;;;;;5053418;28;20659;-91
2022/08/28 08:50:25;;;;;;;9.23;3.87;;;23.10;59.40;;;;;;5053153;28;20252;-92
2022/08/28 08:53:12;;;;;;;18.53;6.53;;;23.20;59.80;;;;;;5143864;22;20688;-94
2022/08/28 08:55:44;;;;;;;9.03;3.20;;;23.40;59.40;;;;;;5057987;28;20210;-92
2022/08/28 08:58:20;;;;;;;9.53;3.73;;;23.60;59.80;;;;;;5063163;28;20215;-94
2022/08/28 09:00:56;;;;;;;7.33;3.20;;;23.80;59.50;;;;;;5070000;28;20251;-94
2022/08/28 09:03:32;;;;;;;11.37;4.23;;;24.00;58.90;;;;;;5060968;28;20211;-93
2022/08/28 09:06:06;;;;;;;7.43;3.10;;;24.20;58.70;;;;;;5060497;28;20660;-92
2022/08/28 09:08:59;;;;;;;8.00;3.07;;;24.50;58.50;;;;;;5061246;28;20208;-93
2022/08/28 09:11:46;;;;;;;5.50;2.57;;;24.70;57.70;;;;;;5058481;28;20176;-91
2022/08/28 09:14:23;;;;;;;6.50;2.83;;;25.00;57.20;;;;;;5061548;28;20206;-92
2022/08/28 09:16:53;;;;;;;8.83;3.37;;;25.30;56.90;;;;;;5054320;28;20199;-91
2022/08/28 09:19:21;;;;;;;11.00;3.90;;;25.50;56.60;;;;;;5049805;28;20228;-93
2022/08/28 09:21:51;;;;;;;7.90;3.77;;;25.70;56.40;;;;;;5050694;28;20303;-92
2022/08/28 09:24:27;;;;;;;10.97;4.50;;;25.90;55.80;;;;;;5048736;28;20202;-92
2022/08/28 09:26:57;;;;;;;6.97;3.30;;;26.10;55.00;;;;;;5058693;22;20362;-92
2022/08/28 09:29:34;;;;;;;7.53;3.60;;;26.30;55.30;;;;;;5057155;22;20599;-92
2022/08/28 09:32:18;;;;;;;7.80;3.57;;;26.50;55.10;;;;;;5050097;28;20668;-92
2022/08/28 09:35:01;;;;;;;7.97;3.33;;;26.70;54.30;;;;;;5049637;28;20238;-91
2022/08/28 09:37:31;;;;;;;12.23;3.77;;;26.90;54.40;;;;;;5049901;28;20897;-90
2022/08/28 09:40:20;;;;;;;8.47;3.70;;;27.10;54.50;;;;;;5049116;28;20214;-93
2022/08/28 09:45:51;;;;;;;8.83;3.93;;;27.40;52.70;;;;;;5057500;28;20211;-92
2022/08/28 09:48:21;;;;;;;11.43;3.87;;;27.60;53.30;;;;;;5053890;28;20235;-94
2022/08/28 09:51:02;;;;;;;7.20;3.27;;;27.70;52.90;;;;;;5052252;28;20200;-93
2022/08/28 09:53:33;;;;;;;8.80;3.70;;;27.80;51.60;;;;;;5054884;28;20208;-92
2022/08/28 09:56:11;;;;;;;8.27;3.53;;;27.90;51.90;;;;;;5054744;28;20329;-93
2022/08/28 09:58:42;;;;;;;7.10;3.57;;;27.90;51.30;;;;;;5051123;28;20235;-92
2022/08/28 10:01:36;;;;;;;7.77;3.57;;;28.00;51.70;;;;;;5049255;28;20278;-92
2022/08/28 10:04:19;;;;;;;7.33;3.33;;;28.10;50.30;;;;;;5044847;28;20261;-91
2022/08/28 10:06:52;;;;;;;9.50;3.73;;;28.20;50.40;;;;;;5050637;28;20257;-90
2022/08/28 10:09:28;;;;;;;8.57;3.23;;;28.30;50.90;;;;;;5048868;28;20230;-92
2022/08/28 10:12:13;;;;;;;6.10;2.80;;;28.40;50.30;;;;;;5050477;28;20267;-94
2022/08/28 10:14:53;;;;;;;8.63;3.20;;;28.40;50.50;;;;;;5049259;28;20199;-91
2022/08/28 10:17:30;;;;;;;9.00;3.17;;;28.50;50.40;;;;;;5048567;28;20636;-91
2022/08/28 10:20:04;;;;;;;10.23;3.50;;;28.60;49.40;;;;;;5050866;28;20603;-92
2022/08/28 10:22:42;;;;;;;8.47;3.33;;;28.70;49.50;;;;;;5052553;28;20189;-93
2022/08/28 10:25:20;;;;;;;10.07;3.57;;;28.70;49.10;;;;;;5052535;28;20239;-91
2022/08/28 10:28:01;;;;;;;12.33;4.67;;;28.80;49.20;;;;;;5054587;28;20230;-91
2022/08/28 10:30:34;;;;;;;9.60;3.53;;;28.80;49.30;;;;;;5053702;28;20281;-92
2022/08/28 10:33:18;;;;;;;6.80;2.90;;;28.90;49.30;;;;;;5053539;28;20215;-93
2022/08/28 10:35:53;;;;;;;9.00;3.80;;;28.90;48.50;;;;;;5053234;28;20269;-91
2022/08/28 10:38:37;;;;;;;5.10;2.47;;;29.00;48.90;;;;;;5063858;28;20218;-93
2022/08/28 10:41:10;;;;;;;6.20;2.73;;;29.10;48.40;;;;;;5072220;28;20184;-94
2022/08/28 10:43:44;;;;;;;5.37;2.33;;;29.20;48.60;;;;;;5058797;28;20211;-93
2022/08/28 10:46:16;;;;;;;10.50;3.43;;;29.30;48.60;;;;;;5054564;28;20276;-90
2022/08/28 10:48:47;;;;;;;6.87;3.57;;;29.30;47.20;;;;;;5052884;28;20261;-91
2022/08/28 10:51:20;;;;;;;9.57;4.67;;;29.40;47.60;;;;;;5052241;28;20453;-91
2022/08/28 10:53:53;;;;;;;9.60;3.63;;;29.60;47.20;;;;;;5051719;28;20200;-92
2022/08/28 10:56:24;;;;;;;7.60;3.37;;;29.60;47.00;;;;;;5051549;28;20274;-91
2022/08/28 10:58:57;;;;;;;6.90;2.90;;;29.70;47.00;;;;;;5051097;28;20251;-91
2022/08/28 11:01:28;;;;;;;9.67;3.23;;;29.80;46.70;;;;;;5051149;28;20215;-92
2022/08/28 11:04:00;;;;;;;6.67;3.37;;;29.90;47.40;;;;;;5050894;28;20661;-93
2022/08/28 11:06:33;;;;;;;7.33;3.77;;;29.90;46.70;;;;;;5051869;28;20214;-93
2022/08/28 11:09:23;;;;;;;5.23;2.77;;;30.00;46.40;;;;;;5050865;28;20208;-92
2022/08/28 11:11:55;;;;;;;7.23;3.03;;;30.10;46.40;;;;;;5051393;28;20299;-93
2022/08/28 11:14:29;;;;;;;10.17;3.10;;;30.20;46.60;;;;;;5053658;28;20219;-91
2022/08/28 11:17:00;;;;;;;6.75;2.83;;;30.30;45.80;;;;;;5052539;28;20207;-92
2022/08/28 11:20:09;;;;;;;6.77;2.57;;;30.40;45.50;;;;;;5051333;28;20700;-90
2022/08/28 11:22:42;;;;;;;5.22;2.40;;;30.40;44.80;;;;;;5008483;28;20233;-91
2022/08/28 11:25:16;;;;;;;5.72;2.38;;;30.50;45.40;;;;;;5045336;28;20216;-92
2022/08/28 11:28:12;;;;;;;10.10;3.17;;;30.60;45.10;;;;;;5057277;28;20196;-91
2022/08/28 11:30:44;;;;;;;8.37;4.10;;;30.70;44.60;;;;;;5057060;28;20568;-92
2022/08/28 11:33:38;;;;;;;4.75;2.40;;;30.70;44.90;;;;;;5069614;28;20625;-94
2022/08/28 11:36:33;;;;;;;3.88;2.17;;;30.80;44.10;;;;;;5056367;28;20228;-92
2022/08/28 11:39:06;;;;;;;3.85;2.05;;;30.90;44.40;;;;;;5055030;28;20318;-91
2022/08/28 11:41:37;;;;;;;5.90;2.90;;;31.00;44.60;;;;;;5053307;28;20246;-93
2022/08/28 11:44:25;;;;;;;6.95;2.78;;;31.10;44.30;;;;;;5052404;28;20192;-93
2022/08/28 11:46:55;;;;;;;5.75;2.63;;;31.20;43.80;;;;;;5051665;28;20633;-93
2022/08/28 11:49:42;;;;;;;7.18;3.30;;;31.30;44.40;;;;;;5050501;28;20188;-93
2022/08/28 11:52:30;;;;;;;6.57;3.15;;;31.50;43.20;;;;;;5052384;28;20204;-95
2022/08/28 11:55:08;;;;;;;6.55;3.38;;;31.50;43.20;;;;;;5050933;28;20196;-95
2022/08/28 11:57:58;;;;;;;7.53;3.60;;;31.60;42.60;;;;;;5050535;28;20660;-93
2022/08/28 12:00:37;;;;;;;7.30;3.33;;;31.60;42.60;;;;;;5050270;28;20216;-93
2022/08/28 12:03:14;;;;;;;5.55;2.80;;;31.60;42.40;;;;;;5050501;28;20200;-92
2022/08/28 12:05:50;;;;;;;6.57;3.17;;;31.70;41.60;;;;;;5049959;28;20295;-93
2022/08/28 12:09:10;;;;;;;7.28;3.03;;;31.70;41.80;;;;;;5050189;28;20285;-93
2022/08/28 12:12:03;;;;;;;5.60;2.70;;;31.70;41.00;;;;;;5019847;28;20208;-92
2022/08/28 12:15:11;;;;;;;8.90;3.22;;;31.70;41.10;;;;;;5047541;28;20196;-94
2022/08/28 12:17:58;;;;;;;6.85;2.83;;;31.60;41.40;;;;;;5049168;28;20203;-94
2022/08/28 12:20:58;;;;;;;6.55;2.83;;;31.50;41.10;;;;;;5052688;28;20193;-93
2022/08/28 12:23:39;;;;;;;6.07;3.10;;;31.50;41.30;;;;;;5050427;28;20211;-94
2022/08/28 12:26:09;;;;;;;6.00;3.20;;;31.50;41.60;;;;;;5050529;28;20249;-94
2022/08/28 12:28:47;;;;;;;6.43;3.10;;;31.40;42.00;;;;;;5049248;28;20684;-91
2022/08/28 12:34:27;;;;;;;9.38;3.30;;;31.40;41.00;;;;;;5049509;28;20285;-93
2022/08/28 12:37:02;;;;;;;8.60;3.83;;;31.40;41.50;;;;;;5049735;28;20207;-93
2022/08/28 12:39:32;;;;;;;6.25;2.95;;;31.40;41.10;;;;;;5050917;28;20350;-93
2022/08/28 12:42:01;;;;;;;4.60;2.53;;;31.50;41.30;;;;;;5049764;28;20254;-92
2022/08/28 12:44:32;;;;;;;5.88;2.60;;;31.50;41.00;;;;;;5049235;28;20211;-93
2022/08/28 12:47:00;;;;;;;6.93;2.72;;;31.50;41.10;;;;;;5049622;28;20235;-91
2022/08/28 12:49:32;;;;;;;6.40;2.30;;;31.60;41.20;;;;;;5050676;28;20221;-93
2022/08/28 12:52:15;;;;;;;7.68;3.53;;;31.70;40.80;;;;;;5050763;28;20723;-92
2022/08/28 12:54:43;;;;;;;9.45;3.88;;;31.70;40.30;;;;;;5053924;28;20216;-92
2022/08/28 12:57:15;;;;;;;5.13;2.33;;;31.80;41.10;;;;;;5050809;28;20211;-94
2022/08/28 12:59:46;;;;;;;7.10;3.20;;;31.80;40.90;;;;;;5051543;28;20266;-93
2022/08/28 13:02:22;;;;;;;5.78;2.55;;;31.90;40.60;;;;;;5050177;28;20578;-92
2022/08/28 13:04:54;;;;;;;6.40;2.90;;;31.90;40.20;;;;;;5050080;28;20215;-92
2022/08/28 13:07:28;;;;;;;7.70;2.85;;;32.00;40.30;;;;;;5050512;28;20299;-91
2022/08/28 13:09:58;;;;;;;8.63;4.00;;;32.00;40.00;;;;;;5063003;28;20198;-92
2022/08/28 13:12:32;;;;;;;4.60;2.15;;;32.10;40.10;;;;;;5063223;28;20552;-92
2022/08/28 13:15:00;;;;;;;5.78;2.75;;;32.10;39.60;;;;;;5055410;28;20270;-93
2022/08/28 13:17:51;;;;;;;5.15;2.75;;;32.30;40.10;;;;;;5055303;28;20210;-93
2022/08/28 13:20:30;;;;;;;4.55;2.47;;;32.30;39.00;;;;;;5051544;28;20236;-93
2022/08/28 13:23:02;;;;;;;6.43;3.13;;;32.40;38.80;;;;;;5052496;28;20200;-90
2022/08/28 13:25:33;;;;;;;4.03;2.30;;;32.50;39.20;;;;;;5050735;28;20212;-92
2022/08/28 13:28:03;;;;;;;8.48;2.83;;;32.50;38.70;;;;;;5049291;28;20200;-93
2022/08/28 13:30:33;;;;;;;7.18;3.80;;;32.50;38.70;;;;;;5049592;28;20220;-94
2022/08/28 13:33:03;;;;;;;5.47;2.90;;;32.50;39.50;;;;;;5049299;28;20290;-93
2022/08/28 13:35:38;;;;;;;6.97;2.90;;;32.60;38.90;;;;;;5049722;28;20232;-93
2022/08/28 13:38:09;;;;;;;8.32;3.55;;;32.70;38.20;;;;;;5049827;28;20239;-94
2022/08/28 13:40:43;;;;;;;7.20;3.40;;;32.70;38.60;;;;;;5049980;28;20231;-94
2022/08/28 13:43:14;;;;;;;5.70;2.85;;;32.80;38.20;;;;;;5049363;28;20219;-92
2022/08/28 13:45:44;;;;;;;7.28;3.35;;;32.80;38.30;;;;;;5050336;28;20200;-92
2022/08/28 13:48:12;;;;;;;7.15;3.17;;;32.80;37.70;;;;;;5050350;28;20204;-92
2022/08/28 13:50:42;;;;;;;7.20;2.92;;;32.80;37.70;;;;;;5049446;28;20239;-93
2022/08/28 13:53:09;;;;;;;4.70;2.33;;;32.80;37.90;;;;;;5050210;28;20211;-93
2022/08/28 13:55:37;;;;;;;8.27;3.03;;;32.70;37.90;;;;;;5060395;28;20207;-93
2022/08/28 13:58:04;;;;;;;8.35;3.95;;;32.70;38.00;;;;;;5064991;28;20208;-92
2022/08/28 14:00:34;;;;;;;7.03;2.83;;;32.80;37.80;;;;;;5064255;28;20227;-93
2022/08/28 14:06:02;;;;;;;4.15;1.98;;;32.90;37.80;;;;;;5063948;28;20283;-93
2022/08/28 14:08:31;;;;;;;5.65;2.67;;;32.90;37.40;;;;;;5068000;28;20188;-95
2022/08/28 14:11:06;;;;;;;3.20;1.83;;;33.00;38.00;;;;;;5073606;28;20204;-94
2022/08/28 14:13:37;;;;;;;4.93;2.22;;;33.10;37.00;;;;;;5058946;28;20203;-93
2022/08/28 14:16:07;;;;;;;7.53;3.28;;;33.10;37.20;;;;;;5060494;28;20208;-93
2022/08/28 14:18:39;;;;;;;5.70;2.40;;;33.10;37.20;;;;;;5056459;28;20295;-93
2022/08/28 14:21:07;;;;;;;4.30;2.45;;;33.10;36.80;;;;;;5056147;28;20220;-93
2022/08/28 14:23:34;;;;;;;6.05;2.60;;;33.10;37.40;;;;;;5056038;28;20207;-94